North Lawrence, New York
Current Conditions -  °F | °C
As of 1:53 AM on Friday 28 Nov 2014 (Local Time) from KMSS Reporting Station
Overcast Overcast  
Wind Chill: 18°   Ceiling: 4200
Heat Index: 24°   Visibility: 10mi
Dew Point: 18°   Wind: 5mph
Humidity: 77%   Direction: 230°SW
Pressure: 30.07"   Gusts: NA
Location:  44.8°N, 74.68°W
Report Text: KMSS 280653Z AUTO 23004KT 10SM SCT029 OVC042 M04/M08 A3007 RMK AO2 SNE13 SLP189 P0000 T10441078
Loading
Personal Weather Stations






























Interactive Weather Map New forecast layout! Learn more

10-Day Weather Forecast

Advertisements
Track Severe Weather on mobile